SOCA

Cayenne - Félix Eboué Airport

Airport
ICAO code
SOCA
IATA Code
CAY
Summary
ICAO Region
CARSAM
ICAO Territory
Location

Matoury, Cayenne

Serving
Cayenne
Elevation
24 ft
Coordinates
4° 49' 11" N , 52° 21' 43" W
KCC
Metar
Observation
SOCA 090230Z AUTO 05010KT 9999 BKN018/// BKN036/// OVC050/// ///CB 25/23 Q1012 TEMPO 2000 SHRA BKN010 BKN018TCU
Station
Cayenne / Rochambeau
Date/Time
2023-02-09 02:30:00
Wind direction
50°
Wind speed
10 kts
Lowest cloud amount
broken clouds
Temperature
25°C
Dew point
23°C
Humidity
88%
QNH
1012 hPa
Weather condition
n/a

Cayenne - Rochambeau Airport is French Guiana's main international airport. It is located in the commune of Matoury, 13 km southwest of French Guiana's capital city of Cayenne. Air Guyane Express has its head office on the airport property.

Climatology

Tropical rainforest climate (Köppen climate classification Af)

Runways

Designator Length Width Surface Rops
8/26 3196 45 ASP Yes/Yes

Airport map

Aerial View

SKYbrary Partners:

Safety knowledge contributed by: